Terminal Aerodrome Forecast
Issued by NWS

Current Version | Previous Version | Graphics & Text | Print | Product List | Glossary On
Versions: 1 2 3 4 5 6 7 8 9 10 11 12 13 14 15 16 17 18 19 20 21 22 23 24
000
FTUS41 KRNK 300547
TAFLWB
TAF
KLWB 300547Z 3006/0106 VRB03KT P6SM OVC250
     FM300800 05004KT 5SM BR OVC025
     FM301200 11007KT 5SM BR OVC013
     FM301500 12008KT 5SM -DZ BR BKN007 OVC012
     FM010100 13006KT 5SM -RADZ SCT009 OVC013=

USA.gov is the U.S. government's official web portal to all federal, state and local government web resources and services.